Time;durP1;ratioP1;P1;durP2;ratioP2;P2;SDS_P1;SDS_P2;PMS_P1;PMS_P2;Temp;Humidity;BMP_temperature;BMP_pressure;BME280_temperature;BME280_humidity;BME280_pressure;Samples;Min_cycle;Max_cycle;Signal;HPM_P1;HPM_P2
2023/10/01 00:22:08;;;;;;;3.72;2.38;;;;;;;25.60;32.41;97030.59;6126395;23;20016;-27
2023/10/01 00:38:01;;;;;;;3.58;2.20;;;;;;;25.63;32.24;97007.38;6124933;23;20084;-27
2023/10/01 00:53:57;;;;;;;4.60;2.40;;;;;;;25.44;32.95;97020.31;6125681;23;20064;-27
2023/10/01 01:23:19;;;;;;;4.32;2.30;;;;;;;25.55;32.97;97009.91;6125586;23;20033;-27
2023/10/01 01:39:28;;;;;;;4.55;2.42;;;;;;;25.45;33.35;97003.16;6124543;23;20068;-27
2023/10/01 01:41:54;;;;;;;5.35;2.55;;;;;;;25.37;34.06;97002.91;6125942;23;20045;-27
2023/10/01 01:54:27;;;;;;;4.07;2.63;;;;;;;25.41;33.31;97006.19;6125842;23;20450;-27
2023/10/01 02:10:20;;;;;;;3.75;2.60;;;;;;;25.35;33.73;97001.91;6125515;23;20021;-28
2023/10/01 02:23:33;;;;;;;3.97;2.45;;;;;;;25.22;33.61;97001.75;6125696;23;20020;-27
2023/10/01 02:39:27;;;;;;;3.88;2.50;;;;;;;25.27;33.39;96992.63;6125974;23;20045;-27
2023/10/01 02:55:26;;;;;;;4.20;2.85;;;;;;;25.12;33.47;96992.94;6127172;23;20057;-26
2023/10/01 03:11:22;;;;;;;3.70;2.72;;;;;;;24.91;34.00;96995.25;6126634;23;20052;-26
2023/10/01 03:24:16;;;;;;;3.97;2.75;;;;;;;25.25;33.06;96995.91;6127252;23;20016;-27
2023/10/01 03:40:21;;;;;;;3.58;2.63;;;;;;;24.99;33.31;96987.94;6125517;23;20064;-28
2023/10/01 03:56:13;;;;;;;5.28;2.42;;;;;;;25.10;32.96;97001.00;6126454;23;20068;-27
2023/10/01 04:25:38;;;;;;;3.38;2.25;;;;;;;24.89;33.20;97008.09;6126050;23;20040;-27
2023/10/01 04:41:31;;;;;;;7.57;3.25;;;;;;;24.93;32.81;97025.28;6124841;23;20042;-27
2023/10/01 04:57:25;;;;;;;3.92;3.05;;;;;;;24.49;34.26;97034.38;6126064;23;20344;-27
2023/10/01 05:10:29;;;;;;;6.93;2.90;;;;;;;24.44;34.18;97044.22;6126138;23;20017;-28
2023/10/01 05:26:21;;;;;;;3.78;2.55;;;;;;;24.43;33.83;97056.56;6125405;23;20025;-30
2023/10/01 05:57:15;;;;;;;6.68;2.85;;;;;;;24.70;33.19;97069.69;6125577;23;20072;-27
2023/10/01 06:13:07;;;;;;;5.35;3.00;;;;;;;24.72;33.10;97087.84;6127109;23;20376;-27
2023/10/01 06:26:16;;;;;;;4.32;2.78;;;;;;;24.87;32.73;97094.63;6127469;23;20017;-26
2023/10/01 06:42:23;;;;;;;4.35;3.10;;;;;;;24.90;32.76;97103.97;6125937;23;20033;-28
2023/10/01 06:44:55;;;;;;;4.30;3.03;;;;;;;24.74;32.64;97101.94;6127649;23;20318;-27
2023/10/01 06:47:26;;;;;;;6.68;4.65;;;;;;;25.07;32.49;97103.97;6127456;23;20002;-27
2023/10/01 06:56:43;;;;;;;9.15;5.95;;;;;;;25.05;32.48;97105.22;6127122;23;20020;-26
2023/10/01 07:12:36;;;;;;;5.25;2.83;;;;;;;25.02;33.04;97130.47;6126960;23;20137;-27
2023/10/01 07:28:28;;;;;;;7.57;2.80;;;;;;;25.12;33.08;97140.03;6126762;23;20021;-27
2023/10/01 07:58:45;;;;;;;4.88;2.63;;;;;;;25.42;32.95;97170.78;6126362;23;20072;-27
2023/10/01 08:44:10;;;;;;;5.10;2.50;;;;;;;25.95;32.28;97210.59;6124754;23;20525;-27
2023/10/01 09:00:19;;;;;;;5.55;2.33;;;;;;;26.04;32.21;97208.25;6125339;23;20029;-27
2023/10/01 09:13:13;;;;;;;2.78;2.35;;;;;;;25.84;31.35;97205.78;6065449;23;20038;-27
2023/10/01 09:29:22;;;;;;;3.35;2.10;;;;;;;26.18;31.39;97206.44;6065156;23;20338;-30
2023/10/01 09:45:27;;;;;;;4.07;2.55;;;;;;;26.26;30.93;97207.41;6124679;23;20519;-27
2023/10/01 09:58:44;;;;;;;5.50;2.15;;;;;;;26.34;30.35;97202.06;6125320;23;20020;-27
2023/10/01 10:14:36;;;;;;;4.70;2.08;;;;;;;26.39;29.78;97210.41;6125600;23;20388;-27
2023/10/01 10:30:30;;;;;;;4.22;2.35;;;;;;;26.46;29.85;97206.31;6125066;23;20502;-27
2023/10/01 11:01:22;;;;;;;3.72;2.33;;;;;;;26.49;29.28;97185.81;6126948;23;20066;-26
2023/10/01 11:14:34;;;;;;;3.47;2.20;;;;;;;26.61;29.36;97180.94;6127033;23;20462;-27
2023/10/01 11:30:34;;;;;;;3.17;2.03;;;;;;;26.75;28.87;97174.28;6126581;23;20017;-26
2023/10/01 11:46:29;;;;;;;4.50;2.00;;;;;;;26.71;27.93;97163.41;6125441;23;20036;-27
2023/10/01 12:15:52;;;;;;;3.13;2.00;;;;;;;26.70;26.38;97153.56;6126424;23;20013;-26
2023/10/01 12:31:44;;;;;;;2.63;2.00;;;;;;;26.77;27.08;97143.91;6126024;23;20024;-27
2023/10/01 12:34:11;;;;;;;2.67;1.90;;;;;;;26.69;27.06;97138.16;6126545;23;20030;-27
2023/10/01 12:46:51;;;;;;;2.75;1.58;;;;;;;26.83;27.32;97131.44;6124497;23;20074;-27
2023/10/01 13:02:45;;;;;;;4.05;1.95;;;;;;;26.78;26.96;97126.69;6126049;23;20041;-26
2023/10/01 13:16:00;;;;;;;2.10;1.63;;;;;;;26.78;26.84;97121.13;6125732;23;20017;-28
2023/10/01 13:32:02;;;;;;;3.45;1.50;;;;;;;26.84;26.43;97104.38;6125738;23;20020;-27
2023/10/01 14:17:13;;;;;;;1.90;1.45;;;;;;;27.01;27.05;97090.34;6125594;23;20017;-27
2023/10/01 14:19:42;;;;;;;2.42;1.52;;;;;;;26.97;27.43;97084.28;6125701;23;20005;-26
2023/10/01 14:32:12;;;;;;;1.73;1.40;;;;;;;26.97;27.32;97078.72;6127534;23;20021;-27
2023/10/01 14:48:07;;;;;;;3.25;1.50;;;;;;;27.04;27.16;97078.16;6125748;23;20032;-27
2023/10/01 15:03:59;;;;;;;2.65;1.90;;;;;;;27.12;28.16;97065.16;6127093;23;20077;-27
2023/10/01 15:17:22;;;;;;;2.65;1.70;;;;;;;27.08;27.79;97071.00;6126694;23;20094;-26
2023/10/01 15:33:33;;;;;;;3.22;2.38;;;;;;;27.04;28.16;97078.91;6126293;23;20017;-28
2023/10/01 15:36:05;;;;;;;3.38;2.13;;;;;;;27.13;28.16;97073.00;6127210;23;20022;-27
2023/10/01 15:48:35;;;;;;;3.40;2.72;;;;;;;27.12;30.97;97082.63;6125687;23;20033;-27
2023/10/01 15:51:02;;;;;;;4.00;3.00;;;;;;;27.12;32.20;97079.84;6126285;23;20017;-27
2023/10/01 16:03:33;;;;;;;6.35;3.85;;;;;;;27.44;33.51;97095.97;6126532;23;20543;-27
2023/10/01 16:20:08;;;;;;;5.55;3.78;;;;;;;27.44;34.92;97105.09;6126195;23;20021;-27
2023/10/01 16:33:13;;;;;;;7.35;3.90;;;;;;;27.32;36.17;97123.19;6037248;23;20381;-27
2023/10/01 16:49:08;;;;;;;6.95;4.13;;;;;;;27.27;37.05;97123.25;6043977;23;20034;-27
2023/10/01 17:05:07;;;;;;;5.63;3.80;;;;;;;27.10;37.45;97121.38;6125771;23;20016;-27
2023/10/01 17:34:30;;;;;;;8.63;4.40;;;;;;;26.98;38.02;97135.91;6125823;23;20017;-26
2023/10/01 17:50:23;;;;;;;6.05;4.13;;;;;;;26.88;38.44;97151.41;6124384;23;20029;-27
2023/10/01 18:06:20;;;;;;;9.32;4.35;;;;;;;26.82;38.69;97165.38;6127323;23;20506;-27
2023/10/01 18:19:33;;;;;;;6.57;4.00;;;;;;;26.59;39.31;97170.31;6047811;23;20055;-27
2023/10/01 18:35:25;;;;;;;9.80;4.90;;;;;;;26.54;39.23;97173.91;6037905;23;20158;-27
2023/10/01 18:51:17;;;;;;;6.97;3.97;;;;;;;26.86;35.25;97174.19;6126225;23;20511;-27
2023/10/01 18:53:42;;;;;;;6.40;3.67;;;;;;;26.94;35.16;97172.41;6127908;23;20009;-27
2023/10/01 19:06:17;;;;;;;6.85;3.78;;;;;;;26.58;34.80;97170.88;6126847;23;20020;-27
2023/10/01 19:22:10;;;;;;;5.47;2.90;;;;;;;26.70;33.29;97181.41;6126824;23;20458;-27
2023/10/01 19:24:36;;;;;;;7.13;3.60;;;;;;;26.70;33.50;97175.84;6127024;23;20340;-27
2023/10/01 19:37:07;;;;;;;6.68;4.00;;;;;;;26.65;33.54;97198.88;6127046;23;20088;-27
2023/10/01 19:50:26;;;;;;;7.75;3.72;;;;;;;26.71;33.53;97202.34;6126741;23;20453;-27
2023/10/01 20:06:46;;;;;;;7.78;3.20;;;;;;;26.60;33.57;97215.59;6097380;23;20303;-28
2023/10/01 20:22:43;;;;;;;6.07;3.60;;;;;;;26.49;33.12;97213.63;6096975;23;20499;-27
2023/10/01 20:35:53;;;;;;;7.45;3.58;;;;;;;26.56;32.65;97213.09;6065495;23;20102;-27
2023/10/01 20:51:46;;;;;;;3.35;2.60;;;;;;;26.56;32.26;97229.78;6072776;23;20057;-27
2023/10/01 21:07:44;;;;;;;3.60;3.08;;;;;;;26.50;32.41;97214.38;6126001;23;20507;-27
2023/10/01 21:37:06;;;;;;;4.22;2.97;;;;;;;26.30;32.54;97224.63;6125740;23;20431;-27
2023/10/01 21:53:10;;;;;;;3.90;3.28;;;;;;;26.24;33.00;97221.06;6124108;23;20074;-27
2023/10/01 21:55:37;;;;;;;4.45;3.40;;;;;;;26.33;32.59;97222.84;6126338;23;20041;-27
2023/10/01 22:08:28;;;;;;;5.45;3.25;;;;;;;26.12;33.15;97225.91;6125510;23;20021;-27
2023/10/01 22:24:37;;;;;;;4.53;2.90;;;;;;;26.45;32.05;97222.28;6125303;23;20019;-27
2023/10/01 22:37:17;;;;;;;4.68;3.00;;;;;;;26.20;32.63;97220.59;6125590;23;20061;-27
2023/10/01 22:53:12;;;;;;;6.43;3.42;;;;;;;26.31;32.44;97233.72;6125823;23;20085;-28
2023/10/01 23:09:17;;;;;;;4.63;3.10;;;;;;;26.22;32.50;97233.97;6126966;23;20440;-27
2023/10/01 23:11:44;;;;;;;6.90;3.20;;;;;;;26.08;32.91;97228.22;6127552;23;20010;-27
2023/10/01 23:14:13;;;;;;;5.28;3.30;;;;;;;26.08;33.26;97233.78;6127152;23;20012;-28
2023/10/01 23:23:28;;;;;;;4.72;3.33;;;;;;;25.99;33.21;97236.81;6126788;23;20490;-28
2023/10/01 23:55:31;;;;;;;4.68;3.15;;;;;;;26.16;32.67;97234.00;6126556;23;20024;-27
